Time;durP1;ratioP1;P1;durP2;ratioP2;P2;SDS_P1;SDS_P2;PMS_P1;PMS_P2;Temp;Humidity;BMP_temperature;BMP_pressure;BME280_temperature;BME280_humidity;BME280_pressure;Samples;Min_cycle;Max_cycle;Signal;HPM_P1;HPM_P2
2022/08/22 00:00:30;;;;;;;6.07;4.78;;;;;;;15.57;100.00;99446.16;4931972;29;20047;-78
2022/08/22 00:03:02;;;;;;;5.80;4.75;;;;;;;15.59;100.00;99448.66;4931621;29;20044;-78
2022/08/22 00:05:50;;;;;;;7.43;4.80;;;;;;;15.58;100.00;99447.81;4937949;28;20043;-78
2022/08/22 00:08:48;;;;;;;6.63;4.63;;;;;;;15.56;100.00;99452.34;5029084;28;20057;-78
2022/08/22 00:11:24;;;;;;;8.10;4.53;;;;;;;15.52;100.00;99450.06;5012896;28;20382;-77
2022/08/22 00:14:11;;;;;;;7.78;4.78;;;;;;;15.54;100.00;99456.84;5028868;28;20498;-79
2022/08/22 00:17:08;;;;;;;5.82;4.45;;;;;;;15.52;100.00;99463.19;5028576;28;20056;-78
2022/08/22 00:19:42;;;;;;;7.90;4.50;;;;;;;15.49;100.00;99458.97;4931740;29;20602;-79
2022/08/22 00:22:14;;;;;;;4.68;4.03;;;;;;;15.48;100.00;99459.94;4931414;29;20664;-80
2022/08/22 00:24:50;;;;;;;7.45;4.28;;;;;;;15.37;100.00;99447.53;4930897;29;20039;-79
2022/08/22 00:27:22;;;;;;;6.45;4.35;;;;;;;15.48;100.00;99459.94;4931806;29;20039;-80
2022/08/22 00:30:10;;;;;;;5.28;4.40;;;;;;;15.49;100.00;99464.22;4952603;28;20139;-80
2022/08/22 00:32:44;;;;;;;6.30;4.60;;;;;;;15.44;100.00;99456.66;4969603;28;20093;-80
2022/08/22 00:35:36;;;;;;;5.65;4.38;;;;;;;15.43;100.00;99464.66;4970091;28;20669;-80
2022/08/22 00:38:09;;;;;;;6.10;4.18;;;;;;;15.45;100.00;99462.75;4970375;28;20121;-80
2022/08/22 00:41:02;;;;;;;5.68;4.43;;;;;;;15.44;100.00;99459.28;4970201;28;20558;-80
2022/08/22 00:44:07;;;;;;;6.15;4.15;;;;;;;15.40;100.00;99459.63;4970402;28;20047;-80
2022/08/22 00:46:42;;;;;;;4.35;3.83;;;;;;;15.32;100.00;99451.44;4970008;28;20599;-80
2022/08/22 00:49:20;;;;;;;5.32;3.95;;;;;;;15.36;100.00;99464.25;4970271;28;20039;-80
2022/08/22 00:51:48;;;;;;;5.97;4.25;;;;;;;15.36;100.00;99468.66;4969966;28;20045;-80
2022/08/22 00:54:27;;;;;;;6.55;3.97;;;;;;;15.34;100.00;99473.19;4997320;28;20026;-80
2022/08/22 00:56:55;;;;;;;9.15;4.93;;;;;;;15.32;100.00;99470.63;5008456;28;20038;-80
2022/08/22 00:59:29;;;;;;;7.05;4.55;;;;;;;15.30;100.00;99467.28;5008919;28;20041;-80
2022/08/22 01:02:13;;;;;;;5.72;4.25;;;;;;;15.30;100.00;99463.84;5008986;28;20049;-80
2022/08/22 01:04:50;;;;;;;5.63;4.15;;;;;;;15.15;100.00;99442.09;5008378;28;20486;-80
2022/08/22 01:07:40;;;;;;;6.45;4.40;;;;;;;15.27;100.00;99453.53;4992383;28;20391;-80
2022/08/22 01:10:20;;;;;;;4.40;4.00;;;;;;;15.23;100.00;99448.50;5008961;28;20038;-79
2022/08/22 01:13:00;;;;;;;4.47;3.83;;;;;;;15.22;100.00;99443.38;5009029;28;20049;-80
2022/08/22 01:15:30;;;;;;;5.50;3.95;;;;;;;15.13;100.00;99426.47;4992175;28;20037;-80
2022/08/22 01:18:07;;;;;;;7.97;4.40;;;;;;;15.21;100.00;99437.28;5010378;28;20520;-80
2022/08/22 01:21:17;;;;;;;7.82;4.07;;;;;;;15.21;100.00;99434.66;4995469;28;20045;-80
2022/08/22 01:23:51;;;;;;;5.85;4.40;;;;;;;15.23;100.00;99439.78;4937410;29;20547;-80
2022/08/22 01:26:41;;;;;;;6.90;4.15;;;;;;;15.23;100.00;99447.66;4953836;28;20082;-80
2022/08/22 01:29:21;;;;;;;7.63;4.18;;;;;;;15.18;100.00;99434.88;4992552;28;20046;-80
2022/08/22 01:32:27;;;;;;;6.50;4.32;;;;;;;15.21;100.00;99439.03;4992389;28;20085;-79
2022/08/22 01:35:04;;;;;;;5.30;3.75;;;;;;;15.19;100.00;99433.91;4992270;28;20077;-80
2022/08/22 01:37:51;;;;;;;7.65;4.00;;;;;;;15.23;100.00;99435.38;4992429;28;20038;-80
2022/08/22 01:40:31;;;;;;;5.03;4.13;;;;;;;15.17;100.00;99432.38;4992324;28;20130;-80
2022/08/22 01:43:08;;;;;;;7.75;3.92;;;;;;;15.22;100.00;99446.84;4992177;28;20038;-80
2022/08/22 01:45:54;;;;;;;7.72;4.43;;;;;;;15.23;100.00;99443.25;4975877;28;20113;-80
2022/08/22 01:48:54;;;;;;;7.03;3.90;;;;;;;15.20;100.00;99445.25;4991740;28;20061;-80
2022/08/22 01:51:37;;;;;;;6.50;3.97;;;;;;;15.17;100.00;99440.22;4992624;28;20154;-80
2022/08/22 01:54:24;;;;;;;5.18;4.18;;;;;;;15.15;100.00;99434.22;4991537;28;20296;-80
2022/08/22 01:56:50;;;;;;;6.15;3.75;;;;;;;15.14;100.00;99437.81;4991566;28;20110;-81
2022/08/22 01:59:31;;;;;;;4.68;3.90;;;;;;;15.09;100.00;99437.28;4999932;28;20042;-80
2022/08/22 02:02:09;;;;;;;5.97;3.92;;;;;;;15.04;100.00;99434.13;5055812;28;20031;-80
2022/08/22 02:04:52;;;;;;;7.30;3.60;;;;;;;15.05;100.00;99434.03;5073754;28;20048;-81
2022/08/22 02:07:27;;;;;;;5.35;3.65;;;;;;;14.97;100.00;99426.69;5073682;28;20090;-81
2022/08/22 02:10:07;;;;;;;5.05;3.75;;;;;;;15.03;100.00;99437.69;5073413;28;20500;-80
2022/08/22 02:12:41;;;;;;;6.70;3.53;;;;;;;14.97;100.00;99442.41;5056087;28;20419;-80
2022/08/22 02:15:37;;;;;;;5.72;3.53;;;;;;;14.96;100.00;99445.16;5055517;28;20032;-80
2022/08/22 02:18:05;;;;;;;6.25;4.00;;;;;;;14.94;100.00;99437.38;5055461;28;20071;-79
2022/08/22 02:20:39;;;;;;;4.82;3.90;;;;;;;14.91;100.00;99436.75;5073626;28;20036;-80
2022/08/22 02:23:21;;;;;;;4.65;3.75;;;;;;;14.87;100.00;99428.25;5055543;28;20553;-80
2022/08/22 02:25:55;;;;;;;4.60;3.80;;;;;;;14.87;100.00;99456.25;5073247;28;20033;-80
2022/08/22 02:28:52;;;;;;;4.70;3.80;;;;;;;14.85;100.00;99453.75;5055222;28;20181;-79
2022/08/22 02:31:25;;;;;;;5.55;3.70;;;;;;;14.82;100.00;99447.84;5073534;28;20025;-80
2022/08/22 02:34:00;;;;;;;4.65;3.67;;;;;;;14.83;100.00;99446.91;5073004;28;20016;-80
2022/08/22 02:36:40;;;;;;;5.20;3.67;;;;;;;14.81;100.00;99456.69;5055195;28;20106;-80
2022/08/22 02:39:18;;;;;;;4.88;3.40;;;;;;;14.83;100.00;99452.16;5073337;28;20027;-79
2022/08/22 02:41:53;;;;;;;6.70;4.22;;;;;;;14.77;100.00;99452.56;5072987;28;20040;-80
2022/08/22 02:44:32;;;;;;;6.43;4.13;;;;;;;14.83;100.00;99457.41;5072874;28;20032;-79
2022/08/22 02:47:39;;;;;;;4.82;3.83;;;;;;;14.81;100.00;99459.28;5072929;28;20044;-80
2022/08/22 02:50:26;;;;;;;6.10;4.10;;;;;;;14.80;100.00;99460.25;4955708;28;20054;-80
2022/08/22 02:52:55;;;;;;;5.75;3.67;;;;;;;14.80;100.00;99461.09;4971568;28;20063;-80
2022/08/22 02:55:49;;;;;;;5.45;3.55;;;;;;;14.78;100.00;99462.94;4971541;28;20388;-80
2022/08/22 02:58:35;;;;;;;5.85;4.20;;;;;;;14.74;100.00;99456.22;4955429;28;20043;-80
2022/08/22 03:01:09;;;;;;;4.40;3.63;;;;;;;14.75;100.00;99459.69;4971382;28;20049;-80
2022/08/22 03:03:39;;;;;;;6.45;3.75;;;;;;;14.70;100.00;99449.50;4971274;28;20060;-80
2022/08/22 03:06:26;;;;;;;6.57;4.30;;;;;;;14.65;100.00;99438.50;4971639;28;20038;-80
2022/08/22 03:09:22;;;;;;;6.90;4.00;;;;;;;14.70;100.00;99460.00;4955096;28;20518;-80
2022/08/22 03:12:14;;;;;;;5.95;4.15;;;;;;;14.69;100.00;99448.69;4955107;28;20079;-80
2022/08/22 03:14:49;;;;;;;4.97;3.38;;;;;;;14.58;100.00;99435.47;4971145;28;20131;-80
2022/08/22 03:17:26;;;;;;;7.18;3.75;;;;;;;14.65;100.00;99441.13;4954956;28;20075;-79
2022/08/22 03:19:59;;;;;;;4.95;3.38;;;;;;;14.59;100.00;99438.91;4971161;28;20031;-79
2022/08/22 03:22:36;;;;;;;8.85;3.88;;;;;;;14.65;100.00;99452.44;4971296;28;20041;-81
2022/08/22 03:25:14;;;;;;;9.07;3.90;;;;;;;14.60;100.00;99436.19;5028629;28;20045;-81
2022/08/22 03:27:50;;;;;;;5.93;3.60;;;;;;;14.56;100.00;99437.34;5031135;28;20390;-80
2022/08/22 03:30:26;;;;;;;4.78;3.25;;;;;;;14.56;100.00;99431.25;5032403;28;20033;-80
2022/08/22 03:33:12;;;;;;;5.88;3.22;;;;;;;14.60;100.00;99440.59;5032032;28;20060;-80
2022/08/22 03:35:41;;;;;;;6.35;3.13;;;;;;;14.63;100.00;99450.88;5030992;28;20117;-80
2022/08/22 03:38:25;;;;;;;4.82;3.40;;;;;;;14.57;100.00;99438.16;5031399;28;20484;-80
2022/08/22 03:41:09;;;;;;;4.18;3.47;;;;;;;14.64;100.00;99449.94;5032004;28;20041;-80
2022/08/22 03:44:05;;;;;;;7.82;3.60;;;;;;;14.51;100.00;99431.56;5032549;28;20017;-80
2022/08/22 03:47:07;;;;;;;7.57;3.33;;;;;;;14.63;100.00;99458.75;5032264;28;20040;-80
2022/08/22 03:49:51;;;;;;;7.10;3.47;;;;;;;14.61;100.00;99453.59;5031984;28;20504;-80
2022/08/22 03:53:09;;;;;;;5.20;3.17;;;;;;;14.62;100.00;99468.41;5032511;28;20398;-80
2022/08/22 03:56:08;;;;;;;7.53;3.38;;;;;;;14.62;100.00;99470.16;5030628;28;20022;-80
2022/08/22 03:58:55;;;;;;;4.10;3.28;;;;;;;14.54;100.00;99452.34;5032117;28;20033;-80
2022/08/22 04:01:33;;;;;;;4.43;3.58;;;;;;;14.63;100.00;99472.69;5030678;28;20058;-79
2022/08/22 04:04:10;;;;;;;6.72;3.65;;;;;;;14.65;100.00;99464.72;5050556;28;20060;-80
2022/08/22 04:07:08;;;;;;;6.45;3.25;;;;;;;14.60;100.00;99454.53;5071652;28;20020;-80
2022/08/22 04:10:05;;;;;;;6.60;3.45;;;;;;;14.63;100.00;99462.22;5053793;28;20477;-80
2022/08/22 04:13:08;;;;;;;7.35;4.10;;;;;;;14.65;100.00;99460.31;5053490;28;20500;-80
2022/08/22 04:15:34;;;;;;;6.05;3.92;;;;;;;14.66;100.00;99462.00;5071525;28;20499;-80
2022/08/22 04:18:19;;;;;;;5.97;3.10;;;;;;;14.65;100.00;99454.22;5053576;28;20020;-80
2022/08/22 04:20:53;;;;;;;5.72;3.47;;;;;;;14.68;100.00;99456.66;5053716;28;20028;-80
2022/08/22 04:23:28;;;;;;;4.90;3.30;;;;;;;14.66;100.00;99448.91;5053755;28;20056;-80
2022/08/22 04:26:02;;;;;;;4.95;3.20;;;;;;;14.57;100.00;99444.25;5071727;28;20029;-80
2022/08/22 04:28:35;;;;;;;9.35;3.17;;;;;;;14.63;100.00;99461.38;5053641;28;20050;-80
2022/08/22 04:31:06;;;;;;;5.93;3.20;;;;;;;14.54;100.00;99444.47;5071218;28;20028;-80
2022/08/22 04:33:53;;;;;;;5.55;3.67;;;;;;;14.63;100.00;99464.81;5071395;28;20116;-80
2022/08/22 04:36:25;;;;;;;6.40;3.58;;;;;;;14.63;100.00;99467.44;5071425;28;20035;-80
2022/08/22 04:39:04;;;;;;;4.53;3.25;;;;;;;14.62;100.00;99473.63;5071283;28;20036;-80
2022/08/22 04:41:45;;;;;;;5.88;3.22;;;;;;;14.62;100.00;99478.88;5070985;28;20103;-80
2022/08/22 04:44:19;;;;;;;4.55;3.13;;;;;;;14.64;100.00;99471.75;5053492;28;20029;-80
2022/08/22 04:46:55;;;;;;;5.45;3.33;;;;;;;14.63;100.00;99470.06;5053510;28;20024;-81
2022/08/22 04:49:34;;;;;;;5.97;3.30;;;;;;;14.60;100.00;99462.41;5053415;28;20020;-81
2022/08/22 04:52:17;;;;;;;4.25;3.08;;;;;;;14.72;100.00;99479.09;5053431;28;20028;-81
2022/08/22 04:54:48;;;;;;;5.97;3.22;;;;;;;14.72;100.00;99466.81;5057077;28;20020;-81
2022/08/22 04:57:54;;;;;;;6.80;2.97;;;;;;;14.73;100.00;99468.50;5057152;28;20119;-82
2022/08/22 05:00:21;;;;;;;5.35;3.10;;;;;;;14.74;100.00;99471.97;5075019;28;20024;-81
2022/08/22 05:02:50;;;;;;;6.30;3.20;;;;;;;14.69;100.00;99477.50;5057075;28;20032;-82
2022/08/22 05:05:24;;;;;;;6.57;3.30;;;;;;;14.70;100.00;99478.34;5075166;28;20080;-82
2022/08/22 05:08:00;;;;;;;5.72;3.30;;;;;;;14.60;100.00;99472.88;5056644;28;20052;-81
2022/08/22 05:10:34;;;;;;;5.47;2.92;;;;;;;14.64;100.00;99478.75;5056937;28;20203;-81
2022/08/22 05:13:05;;;;;;;5.32;3.13;;;;;;;14.57;100.00;99467.84;5074502;28;20021;-81
2022/08/22 05:15:37;;;;;;;4.95;3.13;;;;;;;14.65;100.00;99478.66;5074772;28;20031;-81
2022/08/22 05:18:12;;;;;;;6.28;2.70;;;;;;;14.62;100.00;99481.50;5056468;28;20025;-81
2022/08/22 05:20:40;;;;;;;5.32;3.10;;;;;;;14.57;100.00;99482.72;5056604;28;20056;-81
2022/08/22 05:23:15;;;;;;;3.60;2.30;;;;;;;14.47;100.00;99472.81;5056381;28;20029;-80
2022/08/22 05:25:43;;;;;;;4.10;2.78;;;;;;;14.50;100.00;99482.31;5056788;28;20420;-81
2022/08/22 05:28:16;;;;;;;4.70;2.80;;;;;;;14.54;100.00;99486.41;5074776;28;20027;-80
2022/08/22 05:30:46;;;;;;;3.65;2.90;;;;;;;14.51;100.00;99483.97;5074878;28;20036;-80
2022/08/22 05:33:23;;;;;;;3.88;2.90;;;;;;;14.43;100.00;99480.97;5074519;28;20029;-80
2022/08/22 05:35:57;;;;;;;4.05;2.60;;;;;;;14.46;100.00;99494.72;5056216;28;20425;-81
2022/08/22 05:38:29;;;;;;;4.38;2.72;;;;;;;14.39;100.00;99493.44;5074319;28;20657;-81
2022/08/22 05:41:04;;;;;;;5.75;2.97;;;;;;;14.39;100.00;99482.13;5056193;28;20385;-81
2022/08/22 05:43:33;;;;;;;5.03;3.08;;;;;;;14.36;100.00;99488.38;5074309;28;20059;-81
2022/08/22 05:46:00;;;;;;;3.22;2.63;;;;;;;14.42;100.00;99495.03;5073916;28;20115;-81
2022/08/22 05:48:44;;;;;;;4.13;3.10;;;;;;;14.40;100.00;99500.34;5056009;28;20036;-81
2022/08/22 05:51:25;;;;;;;4.40;2.75;;;;;;;14.40;100.00;99500.34;5074071;28;20039;-81
2022/08/22 05:54:07;;;;;;;5.30;3.15;;;;;;;14.41;100.00;99495.94;5055636;28;20021;-81
2022/08/22 05:56:40;;;;;;;5.53;2.90;;;;;;;14.42;100.00;99498.50;5074002;28;20024;-81
2022/08/22 05:59:22;;;;;;;5.13;3.17;;;;;;;14.40;100.00;99500.34;5055835;28;20108;-81
2022/08/22 06:02:02;;;;;;;4.03;3.10;;;;;;;14.43;100.00;99507.19;5074061;28;20025;-81
2022/08/22 06:04:58;;;;;;;6.65;3.38;;;;;;;14.40;100.00;99510.84;5055000;28;20052;-81
2022/08/22 06:07:32;;;;;;;4.50;3.08;;;;;;;14.32;100.00;99496.53;4956374;28;20035;-81
2022/08/22 06:10:16;;;;;;;4.68;3.10;;;;;;;14.40;100.00;99508.22;4972363;28;20038;-80
2022/08/22 06:13:00;;;;;;;4.60;3.00;;;;;;;14.27;100.00;99491.59;4972627;28;20690;-80
2022/08/22 06:15:47;;;;;;;6.43;3.35;;;;;;;14.39;100.00;99503.91;4972401;28;20035;-80
2022/08/22 06:18:16;;;;;;;4.60;3.10;;;;;;;14.36;100.00;99504.09;4972133;28;20077;-80
2022/08/22 06:20:52;;;;;;;4.15;2.72;;;;;;;14.41;100.00;99507.28;4972517;28;20042;-81
2022/08/22 06:23:48;;;;;;;4.90;3.00;;;;;;;14.39;100.00;99501.31;4972388;28;20073;-80
2022/08/22 06:26:16;;;;;;;3.47;2.80;;;;;;;14.37;100.00;99497.94;4972122;28;20123;-81
2022/08/22 06:28:46;;;;;;;4.70;3.03;;;;;;;14.45;100.00;99497.44;4956033;28;20034;-80
2022/08/22 06:31:19;;;;;;;4.63;3.00;;;;;;;14.39;100.00;99490.81;4971987;28;20488;-80
2022/08/22 06:33:55;;;;;;;4.57;2.95;;;;;;;14.41;100.00;99494.19;4955860;28;20023;-80
2022/08/22 06:36:31;;;;;;;3.22;2.75;;;;;;;14.44;100.00;99496.59;4972357;28;20534;-81
2022/08/22 06:39:23;;;;;;;4.78;2.80;;;;;;;14.54;100.00;99511.75;4971840;28;20110;-81
2022/08/22 06:42:09;;;;;;;4.07;3.08;;;;;;;14.56;100.00;99512.50;4972003;28;20031;-81
2022/08/22 06:45:09;;;;;;;4.07;2.80;;;;;;;14.53;100.00;99505.66;5023212;28;20409;-80
2022/08/22 06:47:44;;;;;;;2.85;2.60;;;;;;;14.59;100.00;99517.56;5073003;28;20025;-81
2022/08/22 06:50:17;;;;;;;3.50;2.90;;;;;;;14.61;100.00;99523.53;5072643;28;20029;-81
2022/08/22 06:52:57;;;;;;;2.67;2.47;;;;;;;14.60;100.00;99521.84;5054818;28;20025;-81
2022/08/22 06:55:26;;;;;;;2.40;2.20;;;;;;;14.60;100.00;99514.81;5054884;28;20028;-80
2022/08/22 06:57:57;;;;;;;3.75;2.55;;;;;;;14.56;100.00;99512.50;5072797;28;20024;-80
2022/08/22 07:00:23;;;;;;;;;;;;;;;14.63;100.00;99519.88;5073227;28;20109;-80
2022/08/22 07:02:57;;;;;;;2.75;2.15;;;;;;;14.64;100.00;99520.72;5072692;28;20347;-80
2022/08/22 07:05:28;;;;;;;2.30;2.10;;;;;;;14.65;100.00;99517.97;5072362;28;20032;-81
2022/08/22 07:07:55;;;;;;;2.47;2.28;;;;;;;14.70;100.00;99517.66;5072995;28;20508;-81
2022/08/22 07:10:22;;;;;;;2.30;2.10;;;;;;;14.65;100.00;99496.16;5054694;28;20075;-80
2022/08/22 07:12:52;;;;;;;3.08;2.35;;;;;;;14.68;100.00;99502.06;5072672;28;20056;-80
2022/08/22 07:15:34;;;;;;;2.80;2.50;;;;;;;14.74;100.00;99506.03;5053391;28;20052;-80
2022/08/22 07:18:03;;;;;;;2.33;2.13;;;;;;;14.83;100.00;99509.84;5053887;28;20020;-80
2022/08/22 07:20:35;;;;;;;2.88;2.67;;;;;;;14.78;100.00;99499.66;5072410;28;20039;-80
2022/08/22 07:23:03;;;;;;;2.50;2.30;;;;;;;14.79;100.00;99498.72;5072132;28;20027;-80
2022/08/22 07:25:30;;;;;;;2.47;2.20;;;;;;;14.82;100.00;99509.00;5054353;28;20028;-81
2022/08/22 07:28:12;;;;;;;1.92;1.80;;;;;;;14.83;100.00;99510.69;5054153;28;20028;-81
2022/08/22 07:31:01;;;;;;;3.72;2.47;;;;;;;14.91;100.00;99518.88;5072267;28;20020;-81
2022/08/22 07:33:37;;;;;;;2.05;1.95;;;;;;;14.94;100.00;99523.09;5054367;28;20067;-81
2022/08/22 07:36:23;;;;;;;1.95;1.80;;;;;;;14.92;100.00;99517.94;5054102;28;20024;-80
2022/08/22 07:39:21;;;;;;;3.42;2.30;;;;;;;14.98;100.00;99527.19;5054271;28;20024;-80
2022/08/22 07:42:17;;;;;;;2.00;1.90;;;;;;;14.98;100.00;99525.41;5072102;28;20016;-80
2022/08/22 07:44:58;;;;;;;2.47;2.28;;;;;;;15.00;100.00;99524.44;5072051;28;20103;-80
2022/08/22 07:47:34;;;;;;;2.38;2.17;;;;;;;15.03;100.00;99519.00;5054122;28;20027;-80
2022/08/22 07:50:05;;;;;;;2.13;1.95;;;;;;;14.97;100.00;99517.66;5053746;28;20039;-81
2022/08/22 07:52:40;;;;;;;2.15;1.88;;;;;;;15.01;100.00;99506.00;5054048;28;20025;-80
2022/08/22 07:55:25;;;;;;;2.58;2.38;;;;;;;15.00;100.00;99506.09;5053495;28;20033;-82
2022/08/22 07:58:02;;;;;;;3.22;2.40;;;;;;;15.07;100.00;99513.44;5071900;28;20028;-81
2022/08/22 08:00:30;;;;;;;3.00;2.20;;;;;;;15.08;100.00;99528.22;5053706;28;20037;-80
2022/08/22 08:03:00;;;;;;;2.10;2.00;;;;;;;15.09;100.00;99524.69;5071517;28;20030;-80
2022/08/22 08:05:30;;;;;;;2.17;2.08;;;;;;;15.01;100.00;99508.63;5071721;28;20055;-80
2022/08/22 08:07:56;;;;;;;3.00;2.10;;;;;;;15.10;100.00;99533.41;5071550;28;20050;-80
2022/08/22 08:10:28;;;;;;;2.70;2.50;;;;;;;15.06;100.00;99521.44;5071347;28;20035;-80
2022/08/22 08:12:59;;;;;;;2.97;2.50;;;;;;;15.07;100.00;99528.34;5053751;28;20049;-80
2022/08/22 08:15:25;;;;;;;2.63;2.42;;;;;;;15.05;100.00;99530.25;5071426;28;20128;-81
2022/08/22 08:18:00;;;;;;;2.63;2.42;;;;;;;15.02;100.00;99519.94;5071442;28;20166;-81
2022/08/22 08:20:28;;;;;;;2.90;2.70;;;;;;;15.06;100.00;99532.75;5053427;28;20546;-81
2022/08/22 08:22:54;;;;;;;3.35;3.05;;;;;;;15.07;100.00;99528.34;5053606;28;20381;-81
2022/08/22 08:25:29;;;;;;;2.60;2.40;;;;;;;15.06;100.00;99530.13;5071342;28;20037;-81
2022/08/22 08:30:43;;;;;;;3.42;2.78;;;;;;;15.13;100.00;99541.06;5070009;28;20032;-79
2022/08/22 08:33:15;;;;;;;3.45;2.92;;;;;;;15.10;100.00;99526.38;5066422;28;20480;-80
2022/08/22 08:35:45;;;;;;;3.05;2.83;;;;;;;15.17;100.00;99543.38;5062739;28;20104;-80
2022/08/22 08:38:25;;;;;;;2.83;2.53;;;;;;;15.14;100.00;99529.63;5057130;28;20021;-80
2022/08/22 08:41:19;;;;;;;3.42;2.95;;;;;;;15.22;100.00;99536.03;5060313;28;20031;-80
2022/08/22 08:44:27;;;;;;;3.42;3.13;;;;;;;15.29;100.00;99531.19;5055424;28;20039;-80
2022/08/22 08:47:10;;;;;;;3.65;3.15;;;;;;;15.32;100.00;99528.38;5054647;28;20029;-80
2022/08/22 08:49:55;;;;;;;3.60;3.30;;;;;;;15.33;100.00;99522.16;5071399;28;20405;-80
2022/08/22 08:52:39;;;;;;;3.97;3.10;;;;;;;15.35;100.00;99532.59;5056685;28;20036;-79
2022/08/22 08:55:08;;;;;;;5.95;3.60;;;;;;;15.39;100.00;99524.38;5074865;28;20028;-79
2022/08/22 08:58:01;;;;;;;4.18;3.38;;;;;;;15.44;100.00;99521.44;5074836;28;20032;-79
2022/08/22 09:01:00;;;;;;;5.38;3.35;;;;;;;15.51;100.00;99522.72;5057072;28;20024;-79
2022/08/22 09:04:07;;;;;;;3.20;3.00;;;;;;;15.55;100.00;99521.56;5074467;28;20101;-81
2022/08/22 09:07:17;;;;;;;3.70;3.40;;;;;;;15.58;100.00;99520.50;5059301;28;20027;-81
2022/08/22 09:10:05;;;;;;;4.20;3.05;;;;;;;15.60;100.00;99523.88;4993396;28;20042;-80
2022/08/22 09:12:39;;;;;;;3.78;3.38;;;;;;;15.58;100.00;99523.94;4993193;28;20228;-80
2022/08/22 09:15:10;;;;;;;3.53;3.22;;;;;;;15.58;100.00;99520.50;4976276;28;20042;-80
2022/08/22 09:18:20;;;;;;;4.05;3.38;;;;;;;15.56;100.00;99520.59;4992894;28;20034;-80
2022/08/22 09:21:20;;;;;;;4.05;3.53;;;;;;;15.56;100.00;99522.41;4954028;29;20409;-80
2022/08/22 09:24:13;;;;;;;3.78;3.40;;;;;;;15.53;100.00;99517.34;4954014;29;20504;-80
2022/08/22 09:26:47;;;;;;;4.38;3.45;;;;;;;15.62;100.00;99520.16;4937946;29;20129;-80
2022/08/22 09:30:00;;;;;;;3.90;3.47;;;;;;;15.71;100.00;99522.19;4953736;29;20027;-80
2022/08/22 09:32:50;;;;;;;3.83;3.53;;;;;;;15.80;100.00;99514.59;4934445;29;20040;-80
2022/08/22 09:35:47;;;;;;;4.70;4.00;;;;;;;15.87;100.00;99524.56;4934438;29;20062;-80
2022/08/22 09:38:43;;;;;;;4.22;3.88;;;;;;;15.93;100.00;99524.16;4933379;29;20047;-80
2022/08/22 09:41:37;;;;;;;4.30;3.90;;;;;;;15.96;100.00;99509.94;4958632;28;20644;-79
2022/08/22 09:44:20;;;;;;;4.28;3.88;;;;;;;16.03;100.00;99513.00;4972703;28;20082;-80
2022/08/22 09:46:51;;;;;;;5.45;4.28;;;;;;;16.09;100.00;99505.50;4956394;28;20479;-80
2022/08/22 09:49:27;;;;;;;6.00;4.05;;;;;;;16.14;100.00;99503.41;4956194;28;20078;-80
2022/08/22 09:52:13;;;;;;;5.75;4.50;;;;;;;16.23;100.00;99509.78;4956416;28;20046;-80
2022/08/22 09:54:49;;;;;;;4.78;4.38;;;;;;;16.35;100.00;99523.81;4971918;28;20042;-84
2022/08/22 09:57:34;;;;;;;4.97;4.55;;;;;;;16.36;100.00;99513.19;4969361;28;20129;-81
2022/08/22 10:00:43;;;;;;;5.40;4.90;;;;;;;16.35;100.00;99513.28;5011559;28;20137;-80
2022/08/22 10:03:17;;;;;;;6.28;5.30;;;;;;;16.32;100.00;99517.00;4994390;28;20041;-82
2022/08/22 10:05:46;;;;;;;5.55;5.05;;;;;;;16.28;100.00;99507.66;4992892;28;20034;-81
2022/08/22 10:08:50;;;;;;;5.75;4.80;;;;;;;16.28;100.00;99523.44;5020709;28;20106;-81
2022/08/22 10:11:28;;;;;;;7.88;5.85;;;;;;;16.19;100.00;99501.28;4975053;28;20034;-80
2022/08/22 10:14:04;;;;;;;6.03;5.32;;;;;;;16.34;100.00;99524.75;4991547;28;20431;-80
2022/08/22 10:16:46;;;;;;;7.47;6.22;;;;;;;16.38;100.00;99527.06;4991002;28;20039;-84
2022/08/22 10:19:18;;;;;;;6.30;5.43;;;;;;;16.40;100.00;99525.16;4991084;28;20039;-82
2022/08/22 10:22:20;;;;;;;6.80;5.63;;;;;;;16.50;100.00;99521.84;4974922;28;20113;-83
2022/08/22 10:24:58;;;;;;;7.00;6.32;;;;;;;16.52;100.00;99519.94;4991412;28;20393;-83
2022/08/22 10:27:39;;;;;;;8.77;6.50;;;;;;;16.55;100.00;99527.63;4990788;28;20340;-84
2022/08/22 10:30:04;;;;;;;;;;;;;;;16.57;100.00;99525.72;4991629;28;20058;-81
2022/08/22 10:32:43;;;;;;;7.03;6.05;;;;;;;16.59;100.00;99534.31;4990710;28;19940;-81
2022/08/22 10:35:15;;;;;;;6.35;5.75;;;;;;;16.56;100.00;99518.78;4990611;28;20122;-79
2022/08/22 10:38:06;;;;;;;7.68;6.05;;;;;;;16.62;100.00;99523.59;4974117;28;20523;-82
2022/08/22 10:40:40;;;;;;;10.13;6.32;;;;;;;16.55;100.00;99502.16;4990592;28;20041;-83
2022/08/22 10:43:11;;;;;;;7.28;6.32;;;;;;;16.59;100.00;99518.56;5048656;28;20052;-81
2022/08/22 10:45:45;;;;;;;7.40;6.70;;;;;;;16.62;100.00;99513.91;5052710;28;20031;-82
2022/08/22 10:48:11;;;;;;;10.07;7.32;;;;;;;16.71;100.00;99520.28;5034196;28;20033;-81
2022/08/22 10:50:42;;;;;;;7.57;6.05;;;;;;;16.69;100.00;99515.16;5034481;28;20086;-82
2022/08/22 10:53:32;;;;;;;8.93;6.28;;;;;;;16.63;100.00;99510.31;5051961;28;20029;-81
2022/08/22 10:56:21;;;;;;;7.70;6.70;;;;;;;16.58;100.00;99517.72;5052371;28;20331;-82
2022/08/22 10:59:11;;;;;;;8.18;6.93;;;;;;;16.60;100.00;99523.72;5034173;28;20397;-82
2022/08/22 11:01:59;;;;;;;7.82;6.80;;;;;;;16.56;100.00;99522.25;5052158;28;20013;-82
2022/08/22 11:04:49;;;;;;;8.23;7.13;;;;;;;16.56;100.00;99518.78;5030500;28;20053;-82
2022/08/22 11:07:27;;;;;;;7.50;6.80;;;;;;;16.59;100.00;99524.66;5031004;28;20033;-81
2022/08/22 11:10:03;;;;;;;7.75;6.95;;;;;;;16.55;100.00;99511.84;5032234;28;20075;-81
2022/08/22 11:12:36;;;;;;;7.93;7.13;;;;;;;16.60;100.00;99531.59;5030615;28;20497;-81
2022/08/22 11:15:10;;;;;;;8.10;7.25;;;;;;;16.60;100.00;99531.59;5032085;28;20034;-81
2022/08/22 11:18:32;;;;;;;7.80;7.00;;;;;;;16.62;100.00;99528.84;5031700;28;20053;-81
2022/08/22 11:21:09;;;;;;;9.70;7.90;;;;;;;16.53;100.00;99511.13;4973989;28;20060;-81
2022/08/22 11:24:02;;;;;;;8.38;7.53;;;;;;;16.64;100.00;99529.56;4990464;28;20026;-82
2022/08/22 11:26:34;;;;;;;9.25;7.15;;;;;;;16.66;100.00;99528.50;4990467;28;20084;-82
2022/08/22 11:29:37;;;;;;;9.80;8.10;;;;;;;16.70;100.00;99535.22;4990301;28;20039;-82
2022/08/22 11:32:21;;;;;;;9.50;8.50;;;;;;;16.72;100.00;99529.84;4990139;28;20035;-82
2022/08/22 11:35:03;;;;;;;9.07;8.27;;;;;;;16.61;100.00;99511.41;4990306;28;20035;-82
2022/08/22 11:38:03;;;;;;;9.68;8.68;;;;;;;16.75;100.00;99521.75;4970516;28;20038;-79
2022/08/22 11:40:55;;;;;;;9.50;8.50;;;;;;;16.83;100.00;99521.19;4944879;29;20035;-79
2022/08/22 11:43:38;;;;;;;10.52;9.43;;;;;;;16.86;100.00;99523.59;4931892;29;20480;-79
2022/08/22 11:46:22;;;;;;;9.98;8.95;;;;;;;16.90;100.00;99522.44;4930596;29;20054;-82
2022/08/22 11:49:23;;;;;;;9.80;8.45;;;;;;;16.93;100.00;99523.00;4931693;29;20043;-79
2022/08/22 11:51:57;;;;;;;;;;;;;;;16.97;100.00;99521.00;4838721;29;20046;-79
2022/08/22 11:54:52;;;;;;;9.90;8.90;;;;;;;17.03;100.00;99519.72;4837856;29;19950;-78
2022/08/22 11:57:36;;;;;;;9.68;8.77;;;;;;;17.05;100.00;99512.53;4838306;29;20044;-78
2022/08/22 12:00:22;;;;;;;11.00;9.88;;;;;;;17.08;100.00;99525.47;4838371;29;20456;-79
2022/08/22 12:03:14;;;;;;;9.90;8.82;;;;;;;17.07;100.00;99526.44;4837934;29;20132;-77
2022/08/22 12:06:20;;;;;;;12.25;9.32;;;;;;;17.12;100.00;99517.22;4838336;29;20102;-79
2022/08/22 12:09:02;;;;;;;10.35;9.35;;;;;;;17.15;100.00;99519.63;4801574;29;20046;-79
2022/08/22 12:11:38;;;;;;;11.10;9.65;;;;;;;17.13;100.00;99510.16;4801675;29;20624;-78
2022/08/22 12:14:15;;;;;;;11.68;9.13;;;;;;;17.17;100.00;99519.50;4801773;29;20113;-78
2022/08/22 12:16:56;;;;;;;9.60;8.70;;;;;;;17.21;100.00;99520.94;4805268;29;20042;-78
2022/08/22 12:19:34;;;;;;;10.68;9.68;;;;;;;17.17;100.00;99506.34;4821933;29;20099;-79
2022/08/22 12:22:45;;;;;;;11.60;10.50;;;;;;;17.27;100.00;99512.56;4874891;29;20100;-79
2022/08/22 12:25:16;;;;;;;11.55;10.13;;;;;;;17.27;100.00;99514.38;4875092;29;20261;-78
2022/08/22 12:27:54;;;;;;;11.40;10.32;;;;;;;17.26;100.00;99517.97;4874604;29;20618;-79
2022/08/22 12:30:26;;;;;;;11.00;9.68;;;;;;;17.20;100.00;99501.69;4949845;29;20038;-78